Charlotte Douglas International Airport
KCLT : now visible

Airfield :











YOU CAN JOIN US ON...

 
LOGIN :

Register | Disclaimer

   EN    FR    IT 

 









Legend :    VFR   Marginal VFR   IFR   Intensive IFR   Very Intensive IFR
Visi :
Ceiling :
>= 8 km
>= 3000ft
5 to 8 km
1000 to 3000 ft
1500m to 5 km
500 to 1000 ft
800 to 1500m
200 to 500 ft
< 800m
< 200 ft
Symbols :   Thunderstorms  Fog  Heavy snow  Heavy precipitations  Wind > 20 kt






- Airport Elevation : 748 ft
- IATA code : CLT


KCLT - Charlotte Douglas International

CURRENT METAR :
  • 081952Z VRB03KT 10SM BKN250 11/M08 A3032 RMK AO2 SLP267 T01061078 $

EXPIRED METARs :
  • 081852Z 06005KT 10SM BKN250 11/M07 A3036 RMK AO2 SLP281 T01061072 $
  • 081752Z 31003KT 10SM FEW050 BKN250 10/M07 A3039 RMK AO2 SLP293 T01001072 10100 21006 58022 $

TAF KCLT
Valid from the 08 at 20:00 until the 10 at 00:00 UTC


081951Z 0820/0924 06006KT P6SM FEW060 BKN250
FM090000 06005KT P6SM SCT060 BKN250
FM090600 36003KT P6SM OVC050
PROB30 0909/0913 4SM -RA OVC025
FM091300 VRB02KT P6SM VCSH OVC015 WS020/19030KT
FM091600 19004KT 6SM -RA BR OVC007 WS020/20035KT
FM091900 20006KT 5SM -RA BR OVC006 WS020/21035KT



MET'MAP, your aeronautical weather chart ! - Copyright ORBIFLY December 2007 - Disclaimer

ORBIFLY MET'MAP TEAM :

Programming & Development : Alexandra Zaïnal
Concept & original design : Baudouin d'Aumeries
Assistance for programming : Marc-Olivier Méhu
Technical & hardware support : Manuel Goepfert

Contact : metmap@orbifly.com




SOURCES & CREDITS :

   NOAA       Earth
Advisory